Time;durP1;ratioP1;P1;durP2;ratioP2;P2;SDS_P1;SDS_P2;PMS_P1;PMS_P2;Temp;Humidity;BMP_temperature;BMP_pressure;BME280_temperature;BME280_humidity;BME280_pressure;Samples;Min_cycle;Max_cycle;Signal;HPM_P1;HPM_P2
2024/01/18 00:00:44;;;;;;;18.38;11.23;;;;;;;-1.64;100.00;99362.28;5059528;28;20037;-84
2024/01/18 00:03:09;;;;;;;20.30;12.02;;;;;;;-1.64;100.00;99360.53;5069170;28;20360;-84
2024/01/18 00:05:35;;;;;;;18.75;11.88;;;;;;;-1.62;100.00;99366.63;5090275;28;20031;-83
2024/01/18 00:08:00;;;;;;;22.75;12.88;;;;;;;-1.60;100.00;99362.31;5061132;28;20093;-84
2024/01/18 00:10:29;;;;;;;19.20;12.07;;;;;;;-1.58;100.00;99375.31;5063781;28;20036;-83
2024/01/18 00:12:55;;;;;;;17.02;11.40;;;;;;;-1.59;100.00;99376.16;5054110;28;20426;-84
2024/01/18 00:15:21;;;;;;;19.42;10.98;;;;;;;-1.59;100.00;99376.16;5074635;28;20032;-83
2024/01/18 00:17:47;;;;;;;18.35;12.70;;;;;;;-1.59;100.00;99389.13;5094682;28;20062;-84
2024/01/18 00:20:13;;;;;;;21.33;11.35;;;;;;;-1.57;100.00;99396.06;5058299;28;20432;-84
2024/01/18 00:22:39;;;;;;;19.13;13.05;;;;;;;-1.57;100.00;99403.84;5053141;28;20521;-84
2024/01/18 00:25:05;;;;;;;19.30;12.70;;;;;;;-1.54;100.00;99408.19;5078167;28;20044;-84
2024/01/18 00:27:31;;;;;;;21.80;12.15;;;;;;;-1.55;100.00;99399.53;5062878;28;20515;-84
2024/01/18 00:29:56;;;;;;;21.83;12.60;;;;;;;-1.50;100.00;99409.06;5043189;28;20032;-84
2024/01/18 00:32:24;;;;;;;18.08;11.82;;;;;;;-1.48;100.00;99404.72;5050589;28;20036;-83
2024/01/18 00:34:50;;;;;;;18.52;11.43;;;;;;;-1.51;100.00;99403.00;5088267;28;20032;-84
2024/01/18 00:37:16;;;;;;;23.02;12.95;;;;;;;-1.51;100.00;99405.59;5076653;28;20046;-83
2024/01/18 00:39:42;;;;;;;23.13;12.65;;;;;;;-1.51;100.00;99410.78;5091412;28;20024;-83
2024/01/18 00:42:07;;;;;;;18.80;11.82;;;;;;;-1.51;100.00;99405.59;5075052;28;20040;-84
2024/01/18 00:44:33;;;;;;;20.40;12.73;;;;;;;-1.50;100.00;99409.94;5083021;28;20066;-83
2024/01/18 00:46:58;;;;;;;18.08;11.48;;;;;;;-1.49;100.00;99422.03;5080125;28;20028;-83
2024/01/18 00:49:24;;;;;;;16.55;11.27;;;;;;;-1.50;100.00;99412.53;5073192;28;20040;-83
2024/01/18 00:51:49;;;;;;;18.58;12.05;;;;;;;-1.51;100.00;99413.38;5064651;28;20071;-84
2024/01/18 00:54:15;;;;;;;19.85;11.77;;;;;;;-1.50;100.00;99414.25;5054919;28;20165;-83
2024/01/18 00:56:40;;;;;;;22.13;13.18;;;;;;;-1.50;100.00;99422.06;5082274;28;20067;-83
2024/01/18 00:59:07;;;;;;;20.00;11.95;;;;;;;-1.56;100.00;99409.91;5082599;28;20139;-83
2024/01/18 01:01:32;;;;;;;17.70;12.63;;;;;;;-1.58;100.00;99428.06;5065207;28;20071;-83
2024/01/18 01:03:57;;;;;;;21.25;12.57;;;;;;;-1.61;100.00;99424.59;5069049;28;20072;-83
2024/01/18 01:06:23;;;;;;;18.85;11.63;;;;;;;-1.65;100.00;99430.63;5036961;28;20040;-83
2024/01/18 01:08:49;;;;;;;22.75;12.27;;;;;;;-1.70;100.00;99433.22;5072727;28;20176;-83
2024/01/18 01:11:14;;;;;;;22.58;12.52;;;;;;;-1.68;100.00;99439.28;5067646;28;20060;-84
2024/01/18 01:13:40;;;;;;;23.13;12.35;;;;;;;-1.67;100.00;99446.19;5072853;28;20437;-84
2024/01/18 01:16:06;;;;;;;20.02;12.65;;;;;;;-1.74;100.00;99444.44;5053227;28;20047;-84
2024/01/18 01:18:31;;;;;;;17.80;11.38;;;;;;;-1.76;100.00;99444.41;5073536;28;20124;-83
2024/01/18 01:20:57;;;;;;;23.67;12.90;;;;;;;-1.74;100.00;99445.28;5048550;28;20036;-83
2024/01/18 01:23:23;;;;;;;21.15;10.75;;;;;;;-1.72;100.00;99453.09;5038427;28;20036;-84
2024/01/18 01:25:48;;;;;;;26.40;11.80;;;;;;;-1.77;100.00;99447.00;5077495;28;20549;-83
2024/01/18 01:28:13;;;;;;;21.50;11.40;;;;;;;-1.80;100.00;99455.66;5091549;28;20035;-83
2024/01/18 01:30:39;;;;;;;16.50;10.82;;;;;;;-1.84;100.00;99445.25;5069013;28;20043;-84
2024/01/18 01:33:04;;;;;;;17.92;11.63;;;;;;;-1.87;100.00;99447.81;5075362;28;20136;-84
2024/01/18 01:35:30;;;;;;;19.55;11.80;;;;;;;-1.94;100.00;99452.09;5086360;28;20053;-84
2024/01/18 01:37:58;;;;;;;18.30;11.93;;;;;;;-1.98;100.00;99458.13;5058340;28;20037;-83
2024/01/18 01:40:24;;;;;;;20.02;11.52;;;;;;;-2.00;100.00;99449.47;5058715;28;20482;-83
2024/01/18 01:42:49;;;;;;;19.30;10.88;;;;;;;-2.00;100.00;99462.44;5064201;28;20053;-84
2024/01/18 01:45:15;;;;;;;19.67;12.38;;;;;;;-2.01;100.00;99464.16;5065592;28;20070;-83
2024/01/18 01:47:40;;;;;;;22.88;12.55;;;;;;;-1.98;100.00;99463.31;5067578;28;20555;-84
2024/01/18 01:50:06;;;;;;;19.83;12.27;;;;;;;-1.97;100.00;99470.25;5075396;28;20028;-83
2024/01/18 01:52:34;;;;;;;17.65;11.15;;;;;;;-2.02;100.00;99459.84;5066441;28;20066;-83
2024/01/18 01:55:00;;;;;;;21.67;12.27;;;;;;;-2.05;100.00;99477.09;5062001;28;20448;-83
2024/01/18 01:57:26;;;;;;;20.02;11.00;;;;;;;-2.11;100.00;99467.53;5063599;28;20041;-83
2024/01/18 01:59:53;;;;;;;18.30;11.80;;;;;;;-2.08;100.00;99474.47;5060229;28;20020;-83
2024/01/18 02:02:22;;;;;;;19.75;11.88;;;;;;;-2.09;100.00;99471.03;5049022;28;20037;-83
2024/01/18 02:04:48;;;;;;;20.73;11.82;;;;;;;-2.05;100.00;99483.16;5081131;28;20097;-83
2024/01/18 02:07:14;;;;;;;20.55;11.90;;;;;;;-2.07;100.00;99471.03;5088708;28;20024;-83
2024/01/18 02:09:40;;;;;;;21.40;12.73;;;;;;;-2.06;100.00;99477.97;5060446;28;20040;-83
2024/01/18 02:12:08;;;;;;;17.65;11.98;;;;;;;-2.14;100.00;99470.13;5092485;28;20531;-83
2024/01/18 02:14:33;;;;;;;21.02;11.68;;;;;;;-2.17;100.00;99475.28;5061070;28;20109;-83
2024/01/18 02:16:59;;;;;;;19.25;11.68;;;;;;;-2.20;100.00;99483.03;5086525;28;20078;-83
2024/01/18 02:19:25;;;;;;;17.35;10.85;;;;;;;-2.23;100.00;99478.69;5045739;28;20074;-83
2024/01/18 02:21:51;;;;;;;18.55;12.05;;;;;;;-2.27;100.00;99483.88;5045004;28;20115;-83
2024/01/18 02:24:31;;;;;;;19.30;11.05;;;;;;;-2.31;100.00;99476.91;5070278;28;20112;-83
2024/01/18 02:26:57;;;;;;;18.02;10.30;;;;;;;-2.31;100.00;99482.09;5083625;28;20032;-83
2024/01/18 02:29:23;;;;;;;27.33;12.40;;;;;;;-2.33;100.00;99471.69;5077206;28;20428;-83
2024/01/18 02:31:48;;;;;;;19.02;10.57;;;;;;;-2.36;100.00;99476.84;5087832;28;20052;-83
2024/01/18 02:34:16;;;;;;;19.85;11.57;;;;;;;-2.38;100.00;99473.38;5067583;28;20047;-83
2024/01/18 02:36:43;;;;;;;17.08;10.43;;;;;;;-2.42;100.00;99467.31;5071550;28;20043;-83
2024/01/18 02:39:08;;;;;;;19.25;11.95;;;;;;;-2.42;100.00;99474.22;5054051;28;20112;-83
2024/01/18 02:41:34;;;;;;;18.35;11.25;;;;;;;-2.42;100.00;99480.28;5053803;28;20119;-83
2024/01/18 02:44:01;;;;;;;20.75;11.57;;;;;;;-2.42;100.00;99485.47;5076249;28;20422;-83
2024/01/18 02:46:30;;;;;;;18.50;12.73;;;;;;;-2.43;100.00;99491.50;5082957;28;20036;-83
2024/01/18 02:48:55;;;;;;;22.35;12.50;;;;;;;-2.47;100.00;99475.91;5054281;28;20049;-83
2024/01/18 02:51:21;;;;;;;20.23;11.85;;;;;;;-2.44;100.00;99487.16;5066753;28;20040;-83
2024/01/18 02:53:46;;;;;;;18.42;10.95;;;;;;;-2.47;100.00;99483.69;5070627;28;20134;-83
2024/01/18 02:56:12;;;;;;;17.48;10.60;;;;;;;-2.48;100.00;99489.72;5086778;28;20056;-83
2024/01/18 02:58:37;;;;;;;21.63;11.98;;;;;;;-2.48;100.00;99502.69;5047723;28;20501;-83
2024/01/18 03:01:03;;;;;;;16.20;10.82;;;;;;;-2.48;100.00;99503.53;5073218;28;20040;-82
2024/01/18 03:03:28;;;;;;;15.38;9.73;;;;;;;-2.46;100.00;99499.25;5073916;28;20032;-83
2024/01/18 03:05:54;;;;;;;18.15;11.35;;;;;;;-2.47;100.00;99492.34;5077846;28;20473;-83
2024/01/18 03:08:19;;;;;;;19.15;10.85;;;;;;;-2.44;100.00;99491.50;5073724;28;20043;-83
2024/01/18 03:10:45;;;;;;;19.00;11.93;;;;;;;-2.43;100.00;99494.06;5061065;28;20068;-82
2024/01/18 03:13:10;;;;;;;23.42;10.60;;;;;;;-2.45;100.00;99494.91;5058274;28;20075;-82
2024/01/18 03:15:36;;;;;;;17.63;10.07;;;;;;;-2.44;100.00;99496.69;5081095;28;20119;-83
2024/01/18 03:18:01;;;;;;;21.98;11.77;;;;;;;-2.45;100.00;99493.22;5057308;28;20049;-83
2024/01/18 03:20:26;;;;;;;18.85;10.80;;;;;;;-2.48;100.00;99490.56;5075243;28;20048;-83
2024/01/18 03:22:54;;;;;;;15.35;10.50;;;;;;;-2.51;100.00;99500.06;5057446;28;20453;-83
2024/01/18 03:25:19;;;;;;;19.92;11.10;;;;;;;-2.57;100.00;99503.47;5075183;28;20072;-82
2024/01/18 03:27:45;;;;;;;19.10;10.80;;;;;;;-2.56;100.00;99512.97;5069958;28;20067;-82
2024/01/18 03:30:10;;;;;;;20.80;11.63;;;;;;;-2.58;100.00;99508.63;5063013;28;20064;-82
2024/01/18 03:32:36;;;;;;;17.00;11.20;;;;;;;-2.60;100.00;99514.69;5095557;28;20114;-82
2024/01/18 03:35:02;;;;;;;22.77;11.27;;;;;;;-2.62;100.00;99518.97;5094034;28;20036;-83
2024/01/18 03:37:27;;;;;;;17.38;10.70;;;;;;;-2.64;100.00;99518.09;5077257;28;20566;-82
2024/01/18 03:39:52;;;;;;;19.00;10.10;;;;;;;-2.68;100.00;99524.09;5073863;28;20522;-82
2024/01/18 03:42:18;;;;;;;19.02;10.05;;;;;;;-2.77;100.00;99521.38;5079068;28;20101;-82
2024/01/18 03:44:44;;;;;;;18.08;11.45;;;;;;;-2.79;100.00;99524.81;5016132;28;20042;-82
2024/01/18 03:47:09;;;;;;;19.15;11.02;;;;;;;-2.85;100.00;99520.44;5076378;28;20058;-82
2024/01/18 03:49:34;;;;;;;20.85;10.73;;;;;;;-2.90;100.00;99535.06;5030358;28;20101;-82
2024/01/18 03:52:00;;;;;;;19.38;10.18;;;;;;;-2.97;100.00;99534.13;5082519;28;20051;-82
2024/01/18 03:54:26;;;;;;;17.85;10.55;;;;;;;-2.99;100.00;99535.84;5089068;28;20029;-82
2024/01/18 03:56:51;;;;;;;18.00;10.70;;;;;;;-2.96;100.00;99542.78;5056890;28;20379;-82
2024/01/18 03:59:18;;;;;;;16.60;10.15;;;;;;;-2.95;100.00;99547.97;5074562;28;20045;-82
2024/01/18 04:01:44;;;;;;;17.20;9.80;;;;;;;-2.99;100.00;99540.13;5048806;28;20106;-82
2024/01/18 04:04:09;;;;;;;15.45;9.90;;;;;;;-3.06;100.00;99541.81;5062603;28;20115;-82
2024/01/18 04:06:35;;;;;;;16.40;10.05;;;;;;;-3.09;100.00;99544.31;5094651;28;20506;-82
2024/01/18 04:09:00;;;;;;;16.48;9.60;;;;;;;-3.16;100.00;99539.94;5093006;28;20114;-82
2024/01/18 04:11:26;;;;;;;17.52;9.80;;;;;;;-3.19;100.00;99539.88;5090471;28;20036;-82
2024/01/18 04:13:52;;;;;;;17.27;9.38;;;;;;;-3.19;100.00;99547.66;5056587;28;20491;-82
2024/01/18 04:16:18;;;;;;;15.75;9.63;;;;;;;-3.25;100.00;99549.31;5072670;28;20040;-83
2024/01/18 04:18:43;;;;;;;16.83;9.73;;;;;;;-3.26;100.00;99551.91;5051341;28;20454;-82
2024/01/18 04:21:10;;;;;;;12.68;8.70;;;;;;;-3.34;100.00;99548.31;5073878;28;20070;-82
2024/01/18 04:23:35;;;;;;;13.50;9.35;;;;;;;-3.37;100.00;99561.25;5056174;28;20051;-82
2024/01/18 04:26:00;;;;;;;17.33;10.48;;;;;;;-3.43;100.00;99556.84;5055980;28;20025;-82
2024/01/18 04:28:26;;;;;;;18.55;9.73;;;;;;;-3.49;100.00;99562.81;5087543;28;20118;-82
2024/01/18 04:30:51;;;;;;;19.17;9.88;;;;;;;-3.59;100.00;99554.88;5055661;28;20459;-82
2024/01/18 04:33:18;;;;;;;14.88;9.38;;;;;;;-3.62;100.00;99560.03;5055951;28;20545;-82
2024/01/18 04:35:44;;;;;;;17.17;9.57;;;;;;;-3.65;100.00;99571.19;5080431;28;20115;-82
2024/01/18 04:38:10;;;;;;;13.25;8.48;;;;;;;-3.71;100.00;99578.84;5074736;28;20116;-82
2024/01/18 04:40:35;;;;;;;16.95;8.98;;;;;;;-3.79;100.00;99588.22;5064983;28;20489;-82
2024/01/18 04:43:03;;;;;;;15.15;8.93;;;;;;;-3.87;100.00;99588.09;5085245;28;20074;-82
2024/01/18 04:45:28;;;;;;;13.13;8.38;;;;;;;-3.94;100.00;99583.69;5054586;28;20028;-83
2024/01/18 04:47:56;;;;;;;15.45;9.40;;;;;;;-3.99;100.00;99588.78;5078095;28;20109;-82
2024/01/18 04:50:24;;;;;;;19.02;9.82;;;;;;;-3.99;100.00;99590.50;5055605;28;20380;-82
2024/01/18 04:52:50;;;;;;;17.30;8.80;;;;;;;-3.96;100.00;99591.41;5080798;28;20083;-82
2024/01/18 04:55:16;;;;;;;14.07;8.27;;;;;;;-4.00;100.00;99588.75;5082629;28;20386;-82
2024/01/18 04:57:42;;;;;;;12.85;8.30;;;;;;;-4.02;100.00;99600.78;5058224;28;20036;-82
2024/01/18 05:00:10;;;;;;;14.43;9.43;;;;;;;-4.00;100.00;99602.56;5076086;28;20036;-82
2024/01/18 05:02:39;;;;;;;14.93;8.88;;;;;;;-4.07;100.00;99605.00;5074672;28;20047;-82
2024/01/18 05:05:10;;;;;;;13.68;9.20;;;;;;;-4.13;100.00;99606.66;5065356;28;20547;-82
2024/01/18 05:07:36;;;;;;;16.05;8.65;;;;;;;-4.17;100.00;99619.50;5086698;28;20044;-82
2024/01/18 05:10:05;;;;;;;16.45;9.32;;;;;;;-4.30;100.00;99618.41;5087140;28;20058;-82
2024/01/18 05:12:32;;;;;;;14.82;8.88;;;;;;;-4.38;100.00;99630.28;5092657;28;20081;-82
2024/01/18 05:14:57;;;;;;;14.07;8.75;;;;;;;-4.44;100.00;99625.03;5080893;28;20052;-83
2024/01/18 05:17:29;;;;;;;17.38;9.50;;;;;;;-4.50;100.00;99627.47;5092367;28;20032;-82
2024/01/18 05:19:55;;;;;;;15.07;8.73;;;;;;;-4.50;100.00;99618.03;5084700;28;20435;-83
2024/01/18 05:22:21;;;;;;;15.27;8.48;;;;;;;-4.50;100.00;99628.38;5065180;28;20028;-83
2024/01/18 05:24:46;;;;;;;12.68;7.78;;;;;;;-4.47;100.00;99615.50;5062284;28;20085;-83
2024/01/18 05:27:13;;;;;;;16.75;8.85;;;;;;;-4.49;100.00;99619.75;5067090;28;20036;-82
2024/01/18 05:29:38;;;;;;;17.17;9.25;;;;;;;-4.50;100.00;99623.22;5078631;28;20036;-83
2024/01/18 05:32:04;;;;;;;16.67;8.82;;;;;;;-4.57;100.00;99624.78;5074758;28;20749;-83
2024/01/18 05:34:29;;;;;;;11.82;7.55;;;;;;;-4.56;100.00;99636.00;5061816;28;20045;-83
2024/01/18 05:36:55;;;;;;;12.55;8.38;;;;;;;-4.64;100.00;99635.84;5078888;28;20480;-83
2024/01/18 05:39:20;;;;;;;16.98;8.40;;;;;;;-4.72;100.00;99639.09;5078987;28;20468;-83
2024/01/18 05:41:46;;;;;;;13.25;7.85;;;;;;;-4.74;100.00;99645.97;5065260;28;20036;-83
2024/01/18 05:44:11;;;;;;;14.25;8.30;;;;;;;-4.80;100.00;99645.00;5086567;28;20070;-83
2024/01/18 05:46:37;;;;;;;14.00;8.48;;;;;;;-4.82;100.00;99651.84;5065922;28;20051;-83
2024/01/18 05:49:03;;;;;;;13.27;7.60;;;;;;;-4.86;100.00;99660.34;5079416;28;20064;-83
2024/01/18 05:51:29;;;;;;;11.63;7.57;;;;;;;-4.92;100.00;99652.50;5076661;28;20491;-83
2024/01/18 05:53:55;;;;;;;15.48;7.57;;;;;;;-4.96;100.00;99658.41;5056081;28;20032;-83
2024/01/18 05:56:20;;;;;;;13.77;7.20;;;;;;;-4.93;100.00;99660.19;5073310;28;20162;-83
2024/01/18 05:58:46;;;;;;;13.00;7.63;;;;;;;-4.98;100.00;99663.53;5078174;28;20127;-83
2024/01/18 06:01:11;;;;;;;10.95;7.40;;;;;;;-4.99;100.00;99664.41;5070346;28;20050;-83
2024/01/18 06:03:37;;;;;;;14.10;6.72;;;;;;;-4.99;100.00;99674.72;5068501;28;20036;-83
2024/01/18 06:06:04;;;;;;;13.07;7.00;;;;;;;-5.01;100.00;99671.22;5089948;28;20024;-83
2024/01/18 06:08:30;;;;;;;11.50;7.68;;;;;;;-5.04;100.00;99675.47;5083919;28;20044;-83
2024/01/18 06:10:55;;;;;;;11.35;7.00;;;;;;;-5.03;100.00;99679.78;5060884;28;20032;-83
2024/01/18 06:13:21;;;;;;;12.98;8.02;;;;;;;-5.02;100.00;99678.94;5060232;28;20040;-83
2024/01/18 06:15:47;;;;;;;10.90;7.03;;;;;;;-5.05;100.00;99691.78;5067247;28;20130;-83
2024/01/18 06:18:14;;;;;;;12.63;7.30;;;;;;;-5.07;100.00;99684.03;5086195;28;20040;-83
2024/01/18 06:20:41;;;;;;;12.68;7.68;;;;;;;-5.02;100.00;99697.00;5059495;28;20103;-83
2024/01/18 06:23:06;;;;;;;17.05;8.32;;;;;;;-5.01;100.00;99697.03;5068167;28;20406;-83
2024/01/18 06:25:32;;;;;;;14.45;8.02;;;;;;;-4.96;100.00;99697.16;5053997;28;20047;-83
2024/01/18 06:27:57;;;;;;;11.85;7.28;;;;;;;-4.96;100.00;99710.06;5051431;28;20049;-83
2024/01/18 06:30:24;;;;;;;15.88;8.05;;;;;;;-5.01;100.00;99706.50;5071230;28;20043;-83
2024/01/18 06:32:50;;;;;;;15.43;7.95;;;;;;;-5.07;100.00;99704.66;5079782;28;20533;-83
2024/01/18 06:35:15;;;;;;;11.70;7.55;;;;;;;-5.08;100.00;99725.28;5065019;28;20046;-83
2024/01/18 06:37:41;;;;;;;11.55;6.43;;;;;;;-5.11;100.00;99738.13;5065273;28;20533;-83
2024/01/18 06:40:08;;;;;;;12.30;7.43;;;;;;;-5.15;100.00;99733.72;5060873;28;20040;-83
2024/01/18 06:42:35;;;;;;;14.32;7.40;;;;;;;-5.19;100.00;99738.81;5057144;28;20048;-83
2024/01/18 06:45:02;;;;;;;11.95;7.50;;;;;;;-5.23;100.00;99741.28;5070505;28;20043;-83
2024/01/18 06:47:28;;;;;;;15.40;7.82;;;;;;;-5.28;100.00;99737.72;5087491;28;20048;-83
2024/01/18 06:49:54;;;;;;;11.65;7.10;;;;;;;-5.33;100.00;99750.50;5075326;28;20476;-83
2024/01/18 06:52:23;;;;;;;14.10;8.15;;;;;;;-5.36;100.00;99749.56;5067665;28;20103;-82
2024/01/18 06:54:48;;;;;;;14.57;7.05;;;;;;;-5.43;100.00;99743.38;5088321;28;20094;-82
2024/01/18 06:57:14;;;;;;;11.68;7.20;;;;;;;-5.46;100.00;99749.34;5090434;28;20036;-83
2024/01/18 06:59:46;;;;;;;13.40;6.95;;;;;;;-5.48;100.00;99750.13;5088759;28;20047;-83
2024/01/18 07:02:12;;;;;;;14.85;7.32;;;;;;;-5.53;100.00;99762.91;5059139;28;20033;-84
2024/01/18 07:04:37;;;;;;;14.23;7.28;;;;;;;-5.56;100.00;99770.56;5075689;28;20032;-83
2024/01/18 07:07:03;;;;;;;12.63;7.50;;;;;;;-5.63;100.00;99764.38;5089718;28;20441;-83
2024/01/18 07:09:29;;;;;;;14.05;7.35;;;;;;;-5.65;100.00;99765.16;5062245;28;20037;-83
2024/01/18 07:11:54;;;;;;;15.68;8.07;;;;;;;-5.67;100.00;99775.44;5075594;28;20048;-84
2024/01/18 07:14:21;;;;;;;13.57;7.95;;;;;;;-5.72;100.00;99774.44;5057611;28;20047;-84
2024/01/18 07:16:47;;;;;;;11.73;6.75;;;;;;;-5.73;100.00;99777.00;5057830;28;20128;-84
2024/01/18 07:19:12;;;;;;;14.45;7.78;;;;;;;-5.73;100.00;99777.00;5080047;28;20504;-84
2024/01/18 07:21:37;;;;;;;15.38;8.88;;;;;;;-5.74;100.00;99783.84;5075279;28;20395;-84
2024/01/18 07:24:03;;;;;;;13.38;7.30;;;;;;;-5.74;100.00;99795.88;5065216;28;20041;-84
2024/01/18 07:26:29;;;;;;;13.02;7.55;;;;;;;-5.73;100.00;99797.63;5066188;28;20036;-84
2024/01/18 07:28:54;;;;;;;11.15;7.18;;;;;;;-5.73;100.00;99805.38;5075527;28;20076;-84
2024/01/18 07:31:20;;;;;;;13.60;7.90;;;;;;;-5.73;100.00;99808.81;5063026;28;20040;-85
2024/01/18 07:33:45;;;;;;;10.07;6.93;;;;;;;-5.72;100.00;99815.69;5063452;28;20119;-84
2024/01/18 07:36:11;;;;;;;16.77;7.38;;;;;;;-5.69;100.00;99815.78;5094885;28;20490;-84
2024/01/18 07:38:36;;;;;;;10.15;7.03;;;;;;;-5.63;100.00;99815.09;5057064;28;20189;-85
2024/01/18 07:41:02;;;;;;;15.50;8.23;;;;;;;-5.57;100.00;99822.09;5058353;28;20071;-84
2024/01/18 07:43:28;;;;;;;14.77;8.70;;;;;;;-5.55;100.00;99817.88;5058084;28;20083;-84
2024/01/18 07:45:53;;;;;;;16.92;8.40;;;;;;;-5.47;100.00;99816.34;5067886;28;20032;-85
2024/01/18 07:48:19;;;;;;;15.50;8.07;;;;;;;-5.41;100.00;99832.00;5086758;28;20035;-84
2024/01/18 07:50:44;;;;;;;14.85;7.65;;;;;;;-5.42;100.00;99831.13;5063396;28;20138;-84
2024/01/18 07:53:11;;;;;;;14.90;7.75;;;;;;;-5.41;100.00;99840.63;5058814;28;20036;-84
2024/01/18 07:55:36;;;;;;;13.73;7.38;;;;;;;-5.43;100.00;99837.13;5057273;28;20514;-85
2024/01/18 07:58:02;;;;;;;11.90;8.18;;;;;;;-5.40;100.00;99838.91;5074824;28;20036;-85
2024/01/18 08:00:28;;;;;;;13.95;8.93;;;;;;;-5.36;100.00;99843.31;5068655;28;20455;-84
2024/01/18 08:02:53;;;;;;;13.65;6.88;;;;;;;-5.32;100.00;99852.00;5090249;28;20071;-84
2024/01/18 08:05:20;;;;;;;17.20;8.40;;;;;;;-5.28;100.00;99861.59;5066800;28;20036;-84
2024/01/18 08:07:45;;;;;;;13.88;7.65;;;;;;;-5.29;100.00;99865.88;5078688;28;20036;-84
2024/01/18 08:10:11;;;;;;;14.65;8.38;;;;;;;-5.27;100.00;99868.47;5076939;28;20443;-84
2024/01/18 08:12:37;;;;;;;19.33;9.02;;;;;;;-5.24;100.00;99864.28;5077499;28;20044;-84
2024/01/18 08:15:04;;;;;;;16.85;8.38;;;;;;;-5.16;100.00;99872.22;5057630;28;20345;-85
2024/01/18 08:17:29;;;;;;;18.23;8.77;;;;;;;-5.10;100.00;99874.94;5074929;28;20475;-85
2024/01/18 08:19:55;;;;;;;18.88;8.98;;;;;;;-5.07;100.00;99876.72;5075082;28;20031;-85
2024/01/18 08:22:20;;;;;;;23.45;9.43;;;;;;;-5.06;100.00;99876.78;5050446;28;20555;-85
2024/01/18 08:24:47;;;;;;;17.00;8.95;;;;;;;-5.06;100.00;99883.66;5078924;28;20028;-85
2024/01/18 08:27:13;;;;;;;16.88;9.57;;;;;;;-5.07;100.00;99882.78;4996335;28;20465;-85
2024/01/18 08:29:38;;;;;;;16.60;8.30;;;;;;;-5.01;100.00;99887.22;4999766;28;20037;-85
2024/01/18 08:32:05;;;;;;;19.70;9.35;;;;;;;-4.95;100.00;99884.78;4986918;28;20456;-85
2024/01/18 08:34:30;;;;;;;20.50;8.82;;;;;;;-4.88;100.00;99891.84;5029819;28;20059;-85
2024/01/18 08:36:56;;;;;;;19.95;9.10;;;;;;;-4.77;100.00;99905.94;5015454;28;20053;-85
2024/01/18 08:39:21;;;;;;;17.25;8.40;;;;;;;-4.67;100.00;99900.97;5015475;28;20085;-85
2024/01/18 08:41:47;;;;;;;14.02;8.18;;;;;;;-4.57;100.00;99910.72;5024070;28;20045;-85
2024/01/18 08:44:12;;;;;;;17.05;9.38;;;;;;;-4.50;100.00;99907.44;5015572;28;20560;-85
2024/01/18 08:46:39;;;;;;;14.63;8.02;;;;;;;-4.41;100.00;99914.53;5015263;28;20049;-84
2024/01/18 08:49:04;;;;;;;13.60;8.18;;;;;;;-4.36;100.00;99918.09;4999086;28;20555;-86
2024/01/18 08:51:30;;;;;;;15.02;7.78;;;;;;;-4.26;100.00;99914.00;5003776;28;20045;-86
2024/01/18 08:53:55;;;;;;;16.08;8.70;;;;;;;-4.19;100.00;99916.75;5001743;28;20353;-85
2024/01/18 08:56:21;;;;;;;12.77;7.80;;;;;;;-4.08;100.00;99926.47;5018196;28;20049;-86
2024/01/18 08:58:46;;;;;;;17.02;8.70;;;;;;;-4.03;100.00;99922.25;5047669;28;20068;-85
2024/01/18 09:01:12;;;;;;;14.20;6.90;;;;;;;-3.93;100.00;99937.16;5040622;28;20103;-86
2024/01/18 09:03:38;;;;;;;14.27;7.90;;;;;;;-3.84;100.00;99932.19;5042545;28;20045;-85
2024/01/18 09:06:03;;;;;;;14.30;7.93;;;;;;;-3.76;100.00;99937.50;5054998;28;20048;-85
2024/01/18 09:08:34;;;;;;;13.27;7.38;;;;;;;-3.67;100.00;99943.75;5054335;28;20075;-84
2024/01/18 09:11:00;;;;;;;13.48;7.57;;;;;;;-3.58;100.00;99943.09;5056122;28;20456;-84
2024/01/18 09:13:26;;;;;;;10.43;6.72;;;;;;;-3.50;100.00;99949.28;5055533;28;20064;-85
2024/01/18 09:15:51;;;;;;;11.55;7.65;;;;;;;-3.41;100.00;99952.88;5055076;28;20107;-83
2024/01/18 09:18:17;;;;;;;12.50;6.93;;;;;;;-3.32;100.00;99955.69;5054836;28;20507;-84
2024/01/18 09:20:45;;;;;;;17.27;7.97;;;;;;;-3.22;100.00;99951.56;5070787;28;20040;-84
2024/01/18 09:23:12;;;;;;;9.70;6.35;;;;;;;-3.15;100.00;99963.78;5057028;28;20045;-85
2024/01/18 09:25:38;;;;;;;13.98;7.22;;;;;;;-3.05;100.00;99971.75;5071890;28;20044;-85
2024/01/18 09:28:04;;;;;;;12.40;6.72;;;;;;;-2.97;100.00;99981.38;5063069;28;20065;-84
2024/01/18 09:30:29;;;;;;;13.75;6.43;;;;;;;-2.87;100.00;99984.19;5056859;28;20608;-83
2024/01/18 09:32:55;;;;;;;9.25;6.75;;;;;;;-2.79;100.00;99989.50;5053018;28;20044;-84
2024/01/18 09:35:21;;;;;;;12.13;5.93;;;;;;;-2.72;100.00;99993.06;5058121;28;20110;-84
2024/01/18 09:37:47;;;;;;;17.70;6.45;;;;;;;-2.65;100.00;100000.97;5057627;28;20123;-84
2024/01/18 09:40:12;;;;;;;11.65;6.78;;;;;;;-2.58;100.00;100004.56;5055752;28;20613;-85
2024/01/18 09:42:46;;;;;;;10.88;6.57;;;;;;;-2.49;100.00;100001.28;5051880;28;20057;-85
2024/01/18 09:45:14;;;;;;;14.93;6.72;;;;;;;-2.42;100.00;100009.19;5051788;28;20037;-87
2024/01/18 09:47:42;;;;;;;13.40;6.03;;;;;;;-2.32;100.00;100012.81;5052791;28;20056;-85
2024/01/18 09:50:09;;;;;;;11.00;6.18;;;;;;;-2.24;100.00;100015.53;5063523;28;20033;-85
2024/01/18 09:52:35;;;;;;;11.95;6.85;;;;;;;-2.16;100.00;100026.88;5037713;28;20465;-85
2024/01/18 09:55:00;;;;;;;11.88;5.85;;;;;;;-2.07;100.00;100033.97;5024017;28;20197;-85
2024/01/18 09:57:32;;;;;;;11.75;6.68;;;;;;;-1.98;100.00;100044.47;5052985;28;20037;-85
2024/01/18 10:00:03;;;;;;;13.77;5.60;;;;;;;-1.91;100.00;100043.72;5059356;28;20040;-85
2024/01/18 10:02:36;;;;;;;13.48;6.93;;;;;;;-1.83;100.00;100054.22;5073022;28;20036;-86
2024/01/18 10:05:01;;;;;;;12.65;6.18;;;;;;;-1.74;100.00;100056.97;5055315;28;20044;-86
2024/01/18 10:07:30;;;;;;;12.68;5.30;;;;;;;-1.64;100.00;100057.97;5055269;28;20036;-87
2024/01/18 10:09:55;;;;;;;10.48;5.45;;;;;;;-1.57;100.00;100063.28;5065709;28;20407;-87
2024/01/18 10:12:21;;;;;;;10.05;4.53;;;;;;;-1.48;100.00;100072.94;5051663;28;20048;-86
2024/01/18 10:14:47;;;;;;;14.02;4.70;;;;;;;-1.42;100.00;100070.41;5051094;28;20055;-86
2024/01/18 10:17:29;;;;;;;11.35;4.70;;;;;;;-1.32;100.00;100077.47;5051646;28;20033;-86
2024/01/18 10:19:56;;;;;;;11.52;4.93;;;;;;;-1.22;100.00;100078.47;5052275;28;20115;-87
2024/01/18 10:22:22;;;;;;;7.40;4.47;;;;;;;-1.13;100.00;100085.53;5052717;28;20037;-86
2024/01/18 10:24:48;;;;;;;7.95;4.50;;;;;;;-1.03;100.00;100086.53;5064955;28;20036;-86
2024/01/18 10:27:14;;;;;;;8.52;4.53;;;;;;;-0.94;100.00;100091.84;5052616;28;20067;-86
2024/01/18 10:29:40;;;;;;;14.65;4.53;;;;;;;-0.86;100.00;100098.03;5065287;28;20033;-86
2024/01/18 10:32:09;;;;;;;8.05;4.57;;;;;;;-0.77;100.00;100098.09;5050972;28;20029;-85
2024/01/18 10:34:38;;;;;;;6.85;4.18;;;;;;;-0.67;100.00;100093.88;5063673;28;20131;-86
2024/01/18 10:37:05;;;;;;;8.90;3.80;;;;;;;-0.58;100.00;100099.22;5063457;28;20028;-86
2024/01/18 10:39:41;;;;;;;10.07;3.25;;;;;;;-0.51;100.00;100111.44;5087870;28;20104;-87
2024/01/18 10:42:10;;;;;;;11.35;3.90;;;;;;;-0.41;100.00;100108.94;5060429;28;20551;-87
2024/01/18 10:44:44;;;;;;;10.32;4.07;;;;;;;-0.31;100.00;100108.19;5050599;28;20067;-85
2024/01/18 10:47:10;;;;;;;9.65;3.72;;;;;;;-0.24;100.00;100107.38;5072257;28;20055;-84
2024/01/18 10:49:36;;;;;;;7.03;3.28;;;;;;;-0.17;100.00;100109.19;5072113;28;20032;-84
2024/01/18 10:52:03;;;;;;;9.48;3.88;;;;;;;-0.08;100.00;100111.88;5046769;28;20044;-84
2024/01/18 10:54:31;;;;;;;9.52;3.58;;;;;;;-0.04;100.00;100105.84;5086024;28;20051;-83
2024/01/18 10:56:59;;;;;;;6.60;2.72;;;;;;;0.09;100.00;100117.22;5074572;28;20028;-83
2024/01/18 10:59:29;;;;;;;6.03;3.63;;;;;;;0.16;100.00;100124.25;5067179;28;20413;-82
2024/01/18 11:01:59;;;;;;;5.50;2.90;;;;;;;0.22;100.00;100123.41;5072527;28;20020;-82
2024/01/18 11:04:29;;;;;;;5.40;3.00;;;;;;;0.29;100.00;100125.22;5074955;28;20365;-82
2024/01/18 11:06:56;;;;;;;7.22;2.80;;;;;;;0.38;100.00;100134.84;5085489;28;20032;-81
2024/01/18 11:09:32;;;;;;;8.88;3.10;;;;;;;0.43;98.55;100136.63;5084471;28;20550;-80